Time;durP1;ratioP1;P1;durP2;ratioP2;P2;SDS_P1;SDS_P2;PMS_P1;PMS_P2;Temp;Humidity;BMP_temperature;BMP_pressure;BME280_temperature;BME280_humidity;BME280_pressure;Samples;Min_cycle;Max_cycle;Signal;HPM_P1;HPM_P2
2022/10/10 00:00:04;;;;;;;7.45;6.65;;;;;;;;;;5027652;28;20059;-77
2022/10/10 00:02:30;;;;;;;7.95;6.57;;;;;;;;;;5027069;28;20103;-77
2022/10/10 00:04:56;;;;;;;8.65;6.55;;;;;;;;;;5022837;28;20045;-77
2022/10/10 00:07:22;;;;;;;6.85;6.20;;;;;;;;;;5027150;28;20069;-77
2022/10/10 00:09:48;;;;;;;8.93;5.78;;;;;;;;;;5025991;28;20033;-77
2022/10/10 00:12:14;;;;;;;8.80;6.68;;;;;;;;;;5028431;28;20046;-77
2022/10/10 00:14:40;;;;;;;8.82;6.30;;;;;;;;;;5028510;28;20095;-77
2022/10/10 00:17:06;;;;;;;6.93;6.20;;;;;;;;;;5026914;28;20077;-77
2022/10/10 00:19:32;;;;;;;8.63;6.00;;;;;;;;;;5027533;28;20088;-77
2022/10/10 00:21:58;;;;;;;7.68;6.60;;;;;;;;;;5019065;28;20452;-77
2022/10/10 00:24:24;;;;;;;8.43;6.00;;;;;;;;;;5018435;28;20041;-77
2022/10/10 00:26:50;;;;;;;7.15;6.45;;;;;;;;;;5039862;28;20071;-77
2022/10/10 00:29:16;;;;;;;8.70;6.50;;;;;;;;;;5033093;28;20128;-77
2022/10/10 00:31:42;;;;;;;7.38;6.43;;;;;;;;;;5029230;28;20477;-77
2022/10/10 00:34:08;;;;;;;8.27;6.90;;;;;;;;;;5029063;28;20041;-77
2022/10/10 00:36:34;;;;;;;7.68;6.65;;;;;;;;;;5016913;28;20049;-77
2022/10/10 00:39:00;;;;;;;8.25;6.80;;;;;;;;;;5024624;28;20412;-77
2022/10/10 00:41:27;;;;;;;7.88;6.50;;;;;;;;;;5019169;28;20081;-77
2022/10/10 00:44:04;;;;;;;9.05;6.68;;;;;;;;;;5012750;28;20170;-77
2022/10/10 00:46:30;;;;;;;7.32;6.55;;;;;;;;;;5030107;28;20053;-77
2022/10/10 00:48:59;;;;;;;10.00;6.57;;;;;;;;;;5021606;28;20099;-76
2022/10/10 00:51:25;;;;;;;7.65;6.75;;;;;;;;;;5019054;28;20140;-77
2022/10/10 00:53:55;;;;;;;7.85;7.05;;;;;;;;;;5023672;28;20060;-77
2022/10/10 00:56:46;;;;;;;8.18;6.47;;;;;;;;;;5026550;28;20061;-77
2022/10/10 00:59:13;;;;;;;8.32;6.65;;;;;;;;;;5023346;28;20037;-77
2022/10/10 01:01:40;;;;;;;9.35;6.72;;;;;;;;;;5026094;28;20485;-77
2022/10/10 01:04:26;;;;;;;7.38;6.65;;;;;;;;;;5026583;28;20225;-77
2022/10/10 01:06:52;;;;;;;8.75;6.78;;;;;;;;;;5025683;28;20374;-76
2022/10/10 01:09:18;;;;;;;7.80;6.70;;;;;;;;;;5027154;28;20493;-77
2022/10/10 01:11:44;;;;;;;7.25;6.55;;;;;;;;;;5025507;28;20132;-77
2022/10/10 01:14:10;;;;;;;9.88;6.68;;;;;;;;;;5024305;28;20485;-77
2022/10/10 01:16:55;;;;;;;8.18;6.78;;;;;;;;;;5026865;28;20092;-77
2022/10/10 01:19:26;;;;;;;7.93;6.95;;;;;;;;;;5021816;28;20062;-77
2022/10/10 01:22:07;;;;;;;7.47;6.68;;;;;;;;;;5022627;28;20049;-77
2022/10/10 01:24:43;;;;;;;6.95;6.28;;;;;;;;;;5024552;28;20041;-77
2022/10/10 01:27:15;;;;;;;7.63;6.82;;;;;;;;;;5025241;28;20053;-77
2022/10/10 01:29:49;;;;;;;8.57;6.75;;;;;;;;;;5016735;28;20500;-77
2022/10/10 01:32:19;;;;;;;9.20;6.60;;;;;;;;;;5025478;28;20103;-77
2022/10/10 01:34:56;;;;;;;9.43;7.13;;;;;;;;;;5027877;28;20053;-77
2022/10/10 01:37:42;;;;;;;7.85;6.43;;;;;;;;;;5023784;28;20042;-77
2022/10/10 01:40:17;;;;;;;8.88;6.97;;;;;;;;;;5027121;28;20054;-77
2022/10/10 01:42:48;;;;;;;7.82;7.03;;;;;;;;;;5025706;28;20041;-77
2022/10/10 01:45:14;;;;;;;7.53;6.78;;;;;;;;;;5029841;28;20046;-77
2022/10/10 01:47:40;;;;;;;10.63;7.05;;;;;;;;;;5031071;28;20034;-77
2022/10/10 01:50:08;;;;;;;7.57;6.78;;;;;;;;;;5024302;28;20156;-77
2022/10/10 01:53:07;;;;;;;9.57;7.13;;;;;;;;;;5025705;28;20077;-77
2022/10/10 01:55:48;;;;;;;7.90;7.10;;;;;;;;;;4991129;28;20087;-77
2022/10/10 01:58:23;;;;;;;8.38;6.55;;;;;;;;;;5026867;28;20045;-77
2022/10/10 02:00:58;;;;;;;8.00;7.15;;;;;;;;;;5025831;28;20038;-77
2022/10/10 02:03:31;;;;;;;8.90;6.70;;;;;;;;;;5028739;28;20044;-77
2022/10/10 02:06:09;;;;;;;8.50;6.63;;;;;;;;;;5025692;28;20071;-77
2022/10/10 02:08:36;;;;;;;7.68;6.90;;;;;;;;;;5030540;28;20493;-77
2022/10/10 02:11:13;;;;;;;8.60;6.93;;;;;;;;;;5028252;28;20480;-77
2022/10/10 02:13:50;;;;;;;8.00;6.65;;;;;;;;;;5028965;28;20104;-77
2022/10/10 02:16:20;;;;;;;9.30;7.53;;;;;;;;;;5022073;28;20059;-77
2022/10/10 02:18:47;;;;;;;10.55;6.88;;;;;;;;;;5027352;28;20101;-77
2022/10/10 02:21:14;;;;;;;8.82;7.40;;;;;;;;;;5021126;28;20041;-77
2022/10/10 02:23:41;;;;;;;10.95;7.50;;;;;;;;;;5025007;28;20103;-77
2022/10/10 02:26:10;;;;;;;7.97;6.63;;;;;;;;;;5028794;28;20050;-77
2022/10/10 02:28:48;;;;;;;10.07;7.07;;;;;;;;;;5029875;28;20033;-78
2022/10/10 02:31:20;;;;;;;8.50;7.10;;;;;;;;;;5028408;28;20046;-77
2022/10/10 02:33:49;;;;;;;10.23;6.97;;;;;;;;;;5032811;28;20041;-77
2022/10/10 02:36:16;;;;;;;7.30;6.60;;;;;;;;;;5027251;28;20045;-77
2022/10/10 02:38:43;;;;;;;10.45;7.22;;;;;;;;;;5021960;28;20452;-77
2022/10/10 02:41:14;;;;;;;8.25;6.80;;;;;;;;;;5024395;28;20121;-77
2022/10/10 02:43:40;;;;;;;10.38;7.15;;;;;;;;;;5025666;28;20402;-77
2022/10/10 02:46:08;;;;;;;8.75;7.13;;;;;;;;;;5024025;28;20111;-77
2022/10/10 02:48:34;;;;;;;8.07;6.75;;;;;;;;;;5030426;28;20054;-77
2022/10/10 02:51:00;;;;;;;8.05;6.43;;;;;;;;;;5031231;28;20124;-77
2022/10/10 02:53:26;;;;;;;8.68;7.43;;;;;;;;;;5030330;28;20125;-77
2022/10/10 02:55:53;;;;;;;7.90;6.65;;;;;;;;;;5028440;28;20104;-77
2022/10/10 02:58:19;;;;;;;7.80;7.00;;;;;;;;;;5022422;28;20045;-77
2022/10/10 03:00:45;;;;;;;8.45;6.72;;;;;;;;;;5027225;28;20055;-77
2022/10/10 03:03:11;;;;;;;8.73;6.85;;;;;;;;;;5027896;28;20128;-77
2022/10/10 03:05:36;;;;;;;8.80;6.93;;;;;;;;;;5024326;28;20507;-77
2022/10/10 03:08:03;;;;;;;8.45;6.72;;;;;;;;;;5020992;28;20054;-77
2022/10/10 03:10:29;;;;;;;9.48;6.72;;;;;;;;;;5028815;28;20053;-77
2022/10/10 03:12:55;;;;;;;9.15;6.82;;;;;;;;;;5029026;28;20452;-77
2022/10/10 03:15:21;;;;;;;8.45;7.18;;;;;;;;;;5028175;28;20042;-77
2022/10/10 03:17:47;;;;;;;7.97;7.15;;;;;;;;;;5024306;28;20072;-77
2022/10/10 03:20:13;;;;;;;8.95;7.07;;;;;;;;;;5023234;28;20053;-77
2022/10/10 03:22:39;;;;;;;7.93;6.72;;;;;;;;;;5027063;28;20049;-77
2022/10/10 03:25:05;;;;;;;7.55;6.82;;;;;;;;;;5027173;28;20049;-77
2022/10/10 03:27:31;;;;;;;8.35;7.03;;;;;;;;;;5029704;28;20041;-77
2022/10/10 03:29:57;;;;;;;10.88;7.18;;;;;;;;;;5030784;28;20048;-77
2022/10/10 03:32:23;;;;;;;8.13;7.05;;;;;;;;;;5026694;28;20045;-77
2022/10/10 03:34:49;;;;;;;8.43;6.95;;;;;;;;;;5027783;28;20052;-77
2022/10/10 03:37:15;;;;;;;7.38;6.65;;;;;;;;;;5026935;28;20049;-77
2022/10/10 03:39:41;;;;;;;7.97;6.93;;;;;;;;;;5030682;28;20048;-77
2022/10/10 03:42:07;;;;;;;9.10;7.07;;;;;;;;;;5029897;28;20041;-77
2022/10/10 03:44:33;;;;;;;8.85;6.70;;;;;;;;;;5023418;28;20497;-77
2022/10/10 03:46:59;;;;;;;9.82;7.05;;;;;;;;;;5021706;28;20041;-77
2022/10/10 03:49:25;;;;;;;12.75;7.53;;;;;;;;;;5019712;28;20045;-77
2022/10/10 03:51:52;;;;;;;10.32;7.15;;;;;;;;;;5025407;28;20041;-77
2022/10/10 03:54:18;;;;;;;9.25;7.15;;;;;;;;;;5026798;28;20057;-77
2022/10/10 03:56:44;;;;;;;9.50;7.18;;;;;;;;;;5029308;28;20154;-77
2022/10/10 03:59:19;;;;;;;7.72;6.93;;;;;;;;;;5027167;28;20080;-77
2022/10/10 04:01:45;;;;;;;9.27;7.50;;;;;;;;;;5019956;28;21406;-77
2022/10/10 04:04:11;;;;;;;10.88;7.72;;;;;;;;;;5028515;28;20068;-77
2022/10/10 04:06:37;;;;;;;7.20;6.50;;;;;;;;;;5026659;28;20034;-77
2022/10/10 04:09:03;;;;;;;11.30;7.68;;;;;;;;;;5021995;28;20508;-77
2022/10/10 04:11:29;;;;;;;10.95;7.40;;;;;;;;;;5023366;28;20041;-77
2022/10/10 04:13:55;;;;;;;8.55;7.65;;;;;;;;;;5026270;28;20131;-77
2022/10/10 04:16:21;;;;;;;8.13;7.28;;;;;;;;;;5026862;28;20511;-77
2022/10/10 04:18:47;;;;;;;9.88;7.20;;;;;;;;;;5025438;28;20132;-77
2022/10/10 04:21:14;;;;;;;12.15;7.70;;;;;;;;;;5037238;28;20109;-77
2022/10/10 04:23:40;;;;;;;8.80;7.50;;;;;;;;;;5027829;28;20117;-77
2022/10/10 04:26:06;;;;;;;9.00;7.03;;;;;;;;;;5025225;28;20508;-77
2022/10/10 04:28:32;;;;;;;10.55;7.75;;;;;;;;;;5020968;28;20045;-77
2022/10/10 04:30:58;;;;;;;9.27;7.43;;;;;;;;;;5019557;28;20136;-77
2022/10/10 04:33:24;;;;;;;7.85;7.05;;;;;;;;;;5021051;28;20049;-77
2022/10/10 04:35:50;;;;;;;10.80;7.30;;;;;;;;;;5025851;28;20055;-77
2022/10/10 04:38:18;;;;;;;8.88;7.53;;;;;;;;;;5022164;28;20473;-77
2022/10/10 04:40:44;;;;;;;9.15;7.60;;;;;;;;;;5025455;28;20041;-77
2022/10/10 04:43:10;;;;;;;10.48;7.85;;;;;;;;;;5022644;28;20048;-77
2022/10/10 04:45:36;;;;;;;8.75;7.22;;;;;;;;;;5029315;28;20042;-77
2022/10/10 04:48:02;;;;;;;9.30;7.57;;;;;;;;;;5027860;28;20045;-77
2022/10/10 04:50:28;;;;;;;9.57;7.28;;;;;;;;;;5026996;28;20056;-77
2022/10/10 04:52:54;;;;;;;10.85;7.28;;;;;;;;;;5027774;28;20053;-77
2022/10/10 04:55:20;;;;;;;12.48;7.60;;;;;;;;;;5017661;28;20516;-77
2022/10/10 04:57:46;;;;;;;10.05;7.90;;;;;;;;;;5025395;28;20049;-77
2022/10/10 05:00:13;;;;;;;10.93;7.90;;;;;;;;;;5025836;28;20539;-77
2022/10/10 05:02:39;;;;;;;10.25;7.38;;;;;;;;;;5028144;28;20041;-77
2022/10/10 05:05:05;;;;;;;9.23;7.88;;;;;;;;;;5027835;28;20042;-77
2022/10/10 05:07:31;;;;;;;8.60;7.68;;;;;;;;;;5024836;28;20037;-76
2022/10/10 05:09:57;;;;;;;8.82;7.70;;;;;;;;;;5025478;28;20048;-77
2022/10/10 05:12:23;;;;;;;9.23;8.07;;;;;;;;;;5029233;28;20111;-77
2022/10/10 05:14:49;;;;;;;10.75;9.20;;;;;;;;;;5021977;28;20478;-77
2022/10/10 05:17:15;;;;;;;11.57;8.05;;;;;;;;;;5032814;28;20072;-76
2022/10/10 05:19:41;;;;;;;10.10;7.75;;;;;;;;;;5028257;28;20077;-77
2022/10/10 05:22:07;;;;;;;9.68;7.55;;;;;;;;;;5024908;28;20130;-77
2022/10/10 05:24:33;;;;;;;10.82;8.35;;;;;;;;;;5031001;28;20455;-76
2022/10/10 05:26:59;;;;;;;13.55;8.27;;;;;;;;;;5025977;28;20087;-77
2022/10/10 05:29:28;;;;;;;8.95;7.60;;;;;;;;;;5029520;28;20064;-77
2022/10/10 05:31:54;;;;;;;11.90;8.63;;;;;;;;;;5028234;28;20045;-77
2022/10/10 05:34:20;;;;;;;10.48;8.85;;;;;;;;;;5024192;28;20104;-77
2022/10/10 05:36:46;;;;;;;10.82;8.18;;;;;;;;;;5030233;28;20397;-77
2022/10/10 05:39:12;;;;;;;9.48;7.82;;;;;;;;;;5026422;28;20045;-78
2022/10/10 05:41:38;;;;;;;10.23;8.18;;;;;;;;;;5029683;28;20053;-77
2022/10/10 05:44:08;;;;;;;8.52;7.43;;;;;;;;;;5032205;28;20483;-77
2022/10/10 05:46:34;;;;;;;12.25;8.90;;;;;;;;;;5030375;28;20055;-77
2022/10/10 05:49:02;;;;;;;11.10;8.43;;;;;;;;;;5019957;28;20041;-77
2022/10/10 05:51:31;;;;;;;10.10;8.88;;;;;;;;;;5031684;28;20476;-80
2022/10/10 05:53:58;;;;;;;11.00;9.00;;;;;;;;;;5027814;28;20049;-83
2022/10/10 05:56:24;;;;;;;11.63;8.50;;;;;;;;;;5031098;28;20045;-84
2022/10/10 05:58:50;;;;;;;11.80;8.07;;;;;;;;;;5032588;28;20037;-84
2022/10/10 06:01:16;;;;;;;13.82;8.68;;;;;;;;;;5030321;28;20068;-84
2022/10/10 06:03:42;;;;;;;10.38;8.52;;;;;;;;;;5027055;28;20441;-83
2022/10/10 06:06:08;;;;;;;10.63;8.10;;;;;;;;;;5033979;28;20049;-83
2022/10/10 06:08:35;;;;;;;11.23;7.93;;;;;;;;;;5028591;28;20042;-84
2022/10/10 06:11:02;;;;;;;9.65;8.60;;;;;;;;;;5025141;28;20053;-84
2022/10/10 06:13:28;;;;;;;10.52;8.30;;;;;;;;;;5028798;28;20077;-84
2022/10/10 06:15:54;;;;;;;10.45;8.30;;;;;;;;;;5025329;28;20049;-84
2022/10/10 06:18:20;;;;;;;13.05;9.30;;;;;;;;;;5016622;28;20412;-84
2022/10/10 06:20:46;;;;;;;11.15;8.40;;;;;;;;;;5029436;28;20050;-84
2022/10/10 06:23:12;;;;;;;12.02;8.52;;;;;;;;;;5017671;28;20134;-84
2022/10/10 06:25:39;;;;;;;13.15;9.98;;;;;;;;;;5032684;28;20050;-84
2022/10/10 06:28:05;;;;;;;11.18;8.80;;;;;;;;;;5030390;28;20088;-84
2022/10/10 06:30:33;;;;;;;11.23;9.05;;;;;;;;;;5028941;28;20045;-84
2022/10/10 06:32:59;;;;;;;10.98;8.75;;;;;;;;;;5025904;28;20057;-84
2022/10/10 06:35:25;;;;;;;11.60;9.27;;;;;;;;;;5032742;28;20087;-84
2022/10/10 06:37:51;;;;;;;9.85;8.65;;;;;;;;;;5029770;28;20053;-85
2022/10/10 06:40:17;;;;;;;12.00;9.38;;;;;;;;;;5027746;28;20049;-84
2022/10/10 06:42:43;;;;;;;12.57;8.93;;;;;;;;;;5018247;28;20053;-84
2022/10/10 06:45:09;;;;;;;10.90;8.52;;;;;;;;;;5025775;28;20037;-85
2022/10/10 06:47:35;;;;;;;11.43;9.00;;;;;;;;;;5032156;28;20124;-83
2022/10/10 06:50:01;;;;;;;11.15;9.98;;;;;;;;;;5031905;28;20099;-83
2022/10/10 06:52:27;;;;;;;10.73;8.48;;;;;;;;;;5022922;28;20056;-84
2022/10/10 06:54:53;;;;;;;16.05;9.70;;;;;;;;;;5012545;28;20565;-84
2022/10/10 06:57:19;;;;;;;11.20;9.40;;;;;;;;;;5012672;28;20042;-85
2022/10/10 06:59:45;;;;;;;11.18;9.18;;;;;;;;;;5028753;28;20053;-84
2022/10/10 07:02:12;;;;;;;11.85;9.43;;;;;;;;;;5032743;28;20452;-84
2022/10/10 07:04:38;;;;;;;12.05;9.27;;;;;;;;;;5031806;28;20037;-84
2022/10/10 07:07:04;;;;;;;13.55;9.68;;;;;;;;;;5029290;28;20413;-84
2022/10/10 07:09:30;;;;;;;11.30;9.35;;;;;;;;;;5033500;28;20107;-84
2022/10/10 07:11:56;;;;;;;13.75;10.25;;;;;;;;;;5032276;28;20396;-85
2022/10/10 07:14:23;;;;;;;12.13;10.10;;;;;;;;;;5030692;28;20087;-85
2022/10/10 07:16:49;;;;;;;10.80;9.55;;;;;;;;;;5024349;28;20061;-84
2022/10/10 07:19:15;;;;;;;12.13;10.05;;;;;;;;;;5012469;28;20510;-85
2022/10/10 07:21:41;;;;;;;13.93;10.20;;;;;;;;;;5011834;28;20045;-84
2022/10/10 07:24:07;;;;;;;14.82;10.45;;;;;;;;;;5021347;28;20086;-85
2022/10/10 07:26:37;;;;;;;14.30;9.82;;;;;;;;;;5027976;28;20046;-84
2022/10/10 07:29:03;;;;;;;12.35;10.02;;;;;;;;;;5019098;28;20045;-85
2022/10/10 07:31:29;;;;;;;14.63;10.73;;;;;;;;;;5031617;28;20063;-85
2022/10/10 07:33:55;;;;;;;17.08;10.50;;;;;;;;;;5030969;28;20124;-85
2022/10/10 07:36:21;;;;;;;15.48;11.07;;;;;;;;;;5015547;28;20052;-84
2022/10/10 07:38:51;;;;;;;15.18;10.05;;;;;;;;;;5012027;28;20497;-85
2022/10/10 07:41:18;;;;;;;14.98;10.35;;;;;;;;;;5012363;28;20461;-85
2022/10/10 07:43:45;;;;;;;12.63;9.98;;;;;;;;;;5016098;28;20033;-85
2022/10/10 07:46:15;;;;;;;13.32;10.00;;;;;;;;;;5011217;28;20511;-85
2022/10/10 07:48:41;;;;;;;14.45;10.15;;;;;;;;;;5012325;28;20049;-85
2022/10/10 07:51:07;;;;;;;14.18;10.05;;;;;;;;;;5014445;28;20555;-84
2022/10/10 07:53:33;;;;;;;15.57;10.32;;;;;;;;;;5015771;28;20535;-83
2022/10/10 07:55:59;;;;;;;13.88;10.65;;;;;;;;;;5032516;28;20060;-84
2022/10/10 07:58:25;;;;;;;15.10;10.18;;;;;;;;;;5030016;28;20049;-85
2022/10/10 08:01:00;;;;;;;15.18;10.07;;;;;;;;;;5014589;28;20061;-85
2022/10/10 08:03:26;;;;;;;11.15;9.55;;;;;;;;;;5014227;28;20045;-85
2022/10/10 08:05:52;;;;;;;13.00;10.27;;;;;;;;;;5032886;28;20099;-85
2022/10/10 08:08:21;;;;;;;13.63;9.93;;;;;;;;;;5027800;28;20049;-84
2022/10/10 08:10:47;;;;;;;13.48;10.40;;;;;;;;;;5012875;28;20041;-85
2022/10/10 08:13:13;;;;;;;13.43;10.57;;;;;;;;;;5011769;28;20045;-85
2022/10/10 08:15:45;;;;;;;15.18;11.20;;;;;;;;;;5027980;28;20513;-85
2022/10/10 08:18:11;;;;;;;12.55;10.35;;;;;;;;;;5031041;28;20076;-84
2022/10/10 08:20:37;;;;;;;13.48;10.73;;;;;;;;;;5032517;28;20400;-85
2022/10/10 08:23:03;;;;;;;14.63;11.13;;;;;;;;;;5024358;28;20489;-84
2022/10/10 08:25:29;;;;;;;12.18;10.82;;;;;;;;;;5029424;28;20215;-84
2022/10/10 08:27:55;;;;;;;14.75;11.13;;;;;;;;;;5030941;28;20102;-85
2022/10/10 08:30:21;;;;;;;12.45;10.13;;;;;;;;;;5029468;28;20073;-85
2022/10/10 08:32:47;;;;;;;14.23;10.50;;;;;;;;;;5031761;28;20033;-84
2022/10/10 08:35:13;;;;;;;14.27;10.27;;;;;;;;;;5011101;28;20069;-84
2022/10/10 08:37:39;;;;;;;13.40;10.40;;;;;;;;;;5011815;28;20042;-84
2022/10/10 08:40:05;;;;;;;14.15;10.63;;;;;;;;;;5022011;28;20053;-84
2022/10/10 08:42:44;;;;;;;14.63;11.25;;;;;;;;;;5030712;28;20122;-84
2022/10/10 08:45:12;;;;;;;13.00;10.15;;;;;;;;;;5023865;28;20057;-84
2022/10/10 08:47:55;;;;;;;16.75;10.05;;;;;;;;;;5018268;28;20060;-85
2022/10/10 08:50:24;;;;;;;12.40;10.00;;;;;;;;;;5017617;28;20049;-85
2022/10/10 08:52:54;;;;;;;14.30;10.25;;;;;;;;;;5027686;28;20053;-84
2022/10/10 08:55:46;;;;;;;14.32;10.60;;;;;;;;;;5034529;28;20059;-84
2022/10/10 08:58:15;;;;;;;15.15;10.60;;;;;;;;;;5029679;28;20052;-84
2022/10/10 09:00:46;;;;;;;12.00;10.48;;;;;;;;;;5032148;28;20045;-84
2022/10/10 09:03:18;;;;;;;13.48;9.98;;;;;;;;;;5033510;28;20037;-84
2022/10/10 09:06:00;;;;;;;12.38;9.73;;;;;;;;;;5029258;28;20502;-82
2022/10/10 09:08:47;;;;;;;14.77;10.13;;;;;;;;;;5014375;28;20050;-85
2022/10/10 09:11:31;;;;;;;14.02;10.10;;;;;;;;;;5032003;28;20164;-85
2022/10/10 09:14:05;;;;;;;10.98;9.88;;;;;;;;;;5037634;28;20099;-85
2022/10/10 09:16:34;;;;;;;11.27;10.05;;;;;;;;;;5020783;28;20053;-85
2022/10/10 09:19:00;;;;;;;11.43;10.13;;;;;;;;;;5013728;28;20045;-84
2022/10/10 09:21:34;;;;;;;16.20;9.95;;;;;;;;;;5015221;28;20046;-83
2022/10/10 09:24:06;;;;;;;14.80;10.18;;;;;;;;;;5014715;28;20041;-84
2022/10/10 09:26:39;;;;;;;11.07;9.45;;;;;;;;;;5015310;28;20101;-84
2022/10/10 09:29:26;;;;;;;13.05;9.77;;;;;;;;;;5023787;28;20041;-85
2022/10/10 09:32:02;;;;;;;17.10;10.50;;;;;;;;;;5032661;28;20041;-86
2022/10/10 09:34:34;;;;;;;12.65;9.90;;;;;;;;;;5034197;28;20053;-84
2022/10/10 09:37:01;;;;;;;15.03;9.90;;;;;;;;;;5034403;28;20132;-84
2022/10/10 09:39:42;;;;;;;13.80;9.57;;;;;;;;;;5021441;28;20400;-85
2022/10/10 09:42:13;;;;;;;14.23;10.38;;;;;;;;;;5015595;28;20493;-85
2022/10/10 09:44:39;;;;;;;11.75;9.68;;;;;;;;;;5025911;28;20133;-86
2022/10/10 09:47:06;;;;;;;12.75;9.73;;;;;;;;;;5014579;28;20049;-84
2022/10/10 09:49:33;;;;;;;11.75;9.75;;;;;;;;;;5015364;28;20128;-84
2022/10/10 09:52:02;;;;;;;13.88;10.13;;;;;;;;;;5013735;28;20046;-84
2022/10/10 09:54:28;;;;;;;14.48;9.35;;;;;;;;;;5027721;28;20075;-83
2022/10/10 09:56:58;;;;;;;12.20;9.32;;;;;;;;;;5034704;28;20065;-84
2022/10/10 09:59:40;;;;;;;12.57;9.60;;;;;;;;;;5026467;28;20107;-84
2022/10/10 10:02:23;;;;;;;13.30;9.82;;;;;;;;;;5013933;28;20045;-84
2022/10/10 10:04:51;;;;;;;13.68;9.88;;;;;;;;;;5014926;28;20050;-85
2022/10/10 10:07:27;;;;;;;13.30;9.93;;;;;;;;;;5014764;28;20050;-84
2022/10/10 10:09:55;;;;;;;13.25;9.52;;;;;;;;;;5031633;28;20111;-84
2022/10/10 10:12:23;;;;;;;14.10;9.82;;;;;;;;;;5033501;28;20056;-83
2022/10/10 10:14:52;;;;;;;13.18;10.13;;;;;;;;;;5022420;28;20124;-84
2022/10/10 10:17:21;;;;;;;16.77;10.23;;;;;;;;;;5024196;28;20203;-84
2022/10/10 10:19:48;;;;;;;12.65;9.50;;;;;;;;;;5033205;28;20045;-84
2022/10/10 10:22:23;;;;;;;16.50;10.60;;;;;;;;;;5032153;28;20670;-85
2022/10/10 10:24:49;;;;;;;15.68;10.93;;;;;;;;;;5014268;28;20050;-81
2022/10/10 10:27:19;;;;;;;16.30;11.02;;;;;;;;;;5012109;28;20092;-85
2022/10/10 10:29:53;;;;;;;14.35;10.82;;;;;;;;;;5023305;28;20522;-83
2022/10/10 10:32:19;;;;;;;;;;;;;;;;;;5027806;28;20054;-83
2022/10/10 10:35:08;;;;;;;16.10;10.77;;;;;;;;;;5033222;28;19921;-82
2022/10/10 10:37:53;;;;;;;15.27;11.30;;;;;;;;;;5020098;28;20545;-82
2022/10/10 10:40:25;;;;;;;17.67;11.68;;;;;;;;;;5013568;28;20060;-82
2022/10/10 10:42:57;;;;;;;13.77;10.68;;;;;;;;;;5029226;28;20053;-85
2022/10/10 10:45:29;;;;;;;15.57;10.57;;;;;;;;;;5024839;28;20073;-82
2022/10/10 10:48:05;;;;;;;17.17;10.77;;;;;;;;;;5026108;28;20053;-81
2022/10/10 10:50:43;;;;;;;14.60;11.70;;;;;;;;;;5031459;28;20038;-77
2022/10/10 10:53:15;;;;;;;17.25;11.60;;;;;;;;;;5027402;28;20576;-78
2022/10/10 10:55:41;;;;;;;14.75;10.20;;;;;;;;;;5012683;28;20070;-80
2022/10/10 10:58:26;;;;;;;16.00;10.00;;;;;;;;;;5020864;28;20077;-78
2022/10/10 11:00:56;;;;;;;16.38;9.73;;;;;;;;;;5014296;28;20089;-83
2022/10/10 11:03:21;;;;;;;14.23;8.73;;;;;;;;;;5029666;28;20041;-82
2022/10/10 11:05:53;;;;;;;14.25;8.60;;;;;;;;;;5031638;28;20071;-82
2022/10/10 11:08:35;;;;;;;13.88;8.65;;;;;;;;;;5027295;28;20080;-82
2022/10/10 11:11:13;;;;;;;13.32;7.60;;;;;;;;;;5029539;28;20052;-82
2022/10/10 11:13:50;;;;;;;13.48;7.20;;;;;;;;;;5019382;28;20041;-83
2022/10/10 11:16:21;;;;;;;11.13;6.38;;;;;;;;;;5031662;28;20444;-83
2022/10/10 11:18:53;;;;;;;9.73;4.90;;;;;;;;;;5023964;28;20048;-83
2022/10/10 11:21:25;;;;;;;9.85;4.50;;;;;;;;;;5025043;28;20057;-83
2022/10/10 11:23:56;;;;;;;10.40;4.55;;;;;;;;;;5030220;28;20855;-83
2022/10/10 11:26:28;;;;;;;9.82;4.60;;;;;;;;;;5031785;28;20067;-83
2022/10/10 11:29:04;;;;;;;7.90;4.53;;;;;;;;;;5033658;28;20091;-84
2022/10/10 11:31:36;;;;;;;9.38;3.97;;;;;;;;;;5024719;28;20034;-83
2022/10/10 11:34:05;;;;;;;10.48;4.00;;;;;;;;;;5025352;28;20053;-83
2022/10/10 11:36:33;;;;;;;7.15;3.67;;;;;;;;;;5028835;28;20037;-83
2022/10/10 11:39:02;;;;;;;7.35;3.28;;;;;;;;;;5028572;28;20053;-85
2022/10/10 11:41:33;;;;;;;8.43;3.67;;;;;;;;;;5030860;28;20111;-84
2022/10/10 11:44:09;;;;;;;8.05;3.75;;;;;;;;;;5018578;28;20042;-84
2022/10/10 11:46:54;;;;;;;9.63;4.10;;;;;;;;;;5030871;28;20084;-84
2022/10/10 11:49:37;;;;;;;7.05;3.60;;;;;;;;;;5028470;28;20081;-82
2022/10/10 11:52:14;;;;;;;7.07;3.88;;;;;;;;;;5024514;28;20401;-84
2022/10/10 11:54:51;;;;;;;9.40;3.20;;;;;;;;;;5016813;28;20632;-82
2022/10/10 11:57:19;;;;;;;8.95;3.50;;;;;;;;;;5021570;28;20049;-82
2022/10/10 11:59:53;;;;;;;5.75;2.75;;;;;;;;;;5023717;28;20045;-82
2022/10/10 12:02:21;;;;;;;6.55;2.30;;;;;;;;;;5012228;28;20066;-84
2022/10/10 12:04:48;;;;;;;5.85;1.80;;;;;;;;;;5014372;28;20394;-83
2022/10/10 12:07:17;;;;;;;6.93;1.88;;;;;;;;;;5029923;28;20516;-83
2022/10/10 12:09:46;;;;;;;10.10;2.20;;;;;;;;;;5029336;28;20037;-80
2022/10/10 12:12:20;;;;;;;7.88;2.35;;;;;;;;;;5030633;28;20046;-81
2022/10/10 12:14:52;;;;;;;5.55;2.42;;;;;;;;;;5015412;28;20499;-81
2022/10/10 12:17:21;;;;;;;9.75;2.88;;;;;;;;;;5032512;28;20400;-81
2022/10/10 12:19:50;;;;;;;8.80;2.58;;;;;;;;;;5020592;28;20041;-80
2022/10/10 12:22:27;;;;;;;6.32;2.50;;;;;;;;;;5029555;28;20053;-79
2022/10/10 12:25:06;;;;;;;9.82;2.97;;;;;;;;;;5035092;28;20057;-79
2022/10/10 12:27:46;;;;;;;13.77;3.17;;;;;;;;;;5030204;28;20092;-81
2022/10/10 12:30:18;;;;;;;11.38;3.22;;;;;;;;;;5032574;28;22409;-87
2022/10/10 12:32:46;;;;;;;9.07;2.53;;;;;;;;;;5035995;28;20080;-83
2022/10/10 12:35:33;;;;;;;16.13;3.33;;;;;;;;;;5025091;28;20143;-82
2022/10/10 12:38:05;;;;;;;10.82;2.95;;;;;;;;;;5013374;28;20049;-87
2022/10/10 12:40:31;;;;;;;14.35;3.00;;;;;;;;;;5014706;28;20041;-87
2022/10/10 12:42:57;;;;;;;14.95;3.55;;;;;;;;;;5014386;28;20059;-85
2022/10/10 12:45:32;;;;;;;14.02;3.05;;;;;;;;;;5022686;28;20034;-85
2022/10/10 12:48:03;;;;;;;14.00;3.60;;;;;;;;;;5022958;28;20056;-84
2022/10/10 12:50:36;;;;;;;8.68;2.70;;;;;;;;;;5024999;28;20042;-82
2022/10/10 12:53:13;;;;;;;8.63;2.83;;;;;;;;;;5031109;28;20393;-84
2022/10/10 12:55:47;;;;;;;8.13;2.72;;;;;;;;;;5027084;28;20049;-86
2022/10/10 12:58:19;;;;;;;6.03;2.60;;;;;;;;;;5029320;28;20049;-85
2022/10/10 13:00:46;;;;;;;11.13;3.17;;;;;;;;;;5022474;28;20104;-82
2022/10/10 13:03:20;;;;;;;11.07;2.63;;;;;;;;;;5024368;28;22370;-81
2022/10/10 13:05:48;;;;;;;8.90;2.65;;;;;;;;;;5022569;28;20041;-81
2022/10/10 13:08:16;;;;;;;11.77;3.28;;;;;;;;;;5029596;28;20045;-80
2022/10/10 13:10:43;;;;;;;10.77;3.10;;;;;;;;;;5029042;28;20485;-81
2022/10/10 13:13:19;;;;;;;8.18;2.40;;;;;;;;;;5025327;28;20527;-81
2022/10/10 13:15:53;;;;;;;8.57;2.83;;;;;;;;;;5026761;28;20073;-82
2022/10/10 13:18:34;;;;;;;12.50;3.45;;;;;;;;;;5029188;28;20064;-82
2022/10/10 13:21:00;;;;;;;11.65;3.13;;;;;;;;;;5024672;28;20492;-81
2022/10/10 13:23:27;;;;;;;11.38;3.58;;;;;;;;;;5029145;28;20055;-81
2022/10/10 13:25:53;;;;;;;20.15;4.03;;;;;;;;;;5028671;28;20077;-81
2022/10/10 13:28:20;;;;;;;7.53;3.05;;;;;;;;;;5014043;28;20050;-81
2022/10/10 13:30:48;;;;;;;11.07;3.55;;;;;;;;;;5029211;28;20103;-81
2022/10/10 13:33:15;;;;;;;17.88;3.88;;;;;;;;;;5030153;28;20556;-81
2022/10/10 13:35:41;;;;;;;10.63;3.10;;;;;;;;;;5025339;28;20041;-80
2022/10/10 13:38:08;;;;;;;9.27;3.40;;;;;;;;;;5035170;28;20080;-81
2022/10/10 13:40:34;;;;;;;12.07;3.28;;;;;;;;;;5032451;28;20444;-81
2022/10/10 13:43:00;;;;;;;11.02;3.38;;;;;;;;;;5030093;28;21560;-81
2022/10/10 13:45:46;;;;;;;8.77;2.90;;;;;;;;;;5033034;28;20124;-80
2022/10/10 13:48:17;;;;;;;9.02;2.80;;;;;;;;;;5033076;28;20041;-81
2022/10/10 13:50:43;;;;;;;7.85;2.55;;;;;;;;;;5030563;28;20564;-82
2022/10/10 13:53:24;;;;;;;7.30;2.42;;;;;;;;;;5015796;28;20073;-80
2022/10/10 13:56:11;;;;;;;9.07;2.40;;;;;;;;;;5025412;28;20059;-81
2022/10/10 13:58:49;;;;;;;5.13;2.75;;;;;;;;;;5023506;28;20401;-82
2022/10/10 14:04:50;;;;;;;8.20;2.38;;;;;;;;;;4999249;28;20056;-83
2022/10/10 14:07:28;;;;;;;9.40;2.75;;;;;;;;;;5023453;28;20046;-83
2022/10/10 14:10:08;;;;;;;8.02;2.60;;;;;;;;;;5035035;28;20049;-82
2022/10/10 14:12:41;;;;;;;8.82;3.47;;;;;;;;;;5033026;28;20025;-82
2022/10/10 14:15:07;;;;;;;;;;;;;;;;;;5030127;28;20525;-81
2022/10/10 14:17:33;;;;;;;6.40;2.55;;;;;;;;;;5030414;28;20008;-83
2022/10/10 14:19:59;;;;;;;8.98;2.45;;;;;;;;;;5033793;28;20076;-82
2022/10/10 14:22:25;;;;;;;8.35;2.80;;;;;;;;;;5030221;28;20516;-82
2022/10/10 14:24:51;;;;;;;5.80;2.63;;;;;;;;;;5014608;28;20048;-82
2022/10/10 14:27:22;;;;;;;8.13;2.83;;;;;;;;;;5023147;28;20038;-82
2022/10/10 14:29:48;;;;;;;8.15;3.03;;;;;;;;;;5021166;28;20120;-83
2022/10/10 14:32:15;;;;;;;8.88;2.70;;;;;;;;;;5028122;28;20095;-84
2022/10/10 14:34:41;;;;;;;8.95;2.80;;;;;;;;;;5031551;28;20048;-86
2022/10/10 14:37:15;;;;;;;7.72;2.53;;;;;;;;;;5018611;28;20038;-84
2022/10/10 14:39:41;;;;;;;9.02;2.10;;;;;;;;;;5031908;28;20052;-83
2022/10/10 14:42:09;;;;;;;5.07;2.17;;;;;;;;;;5031183;28;20046;-85
2022/10/10 14:44:35;;;;;;;4.63;2.42;;;;;;;;;;5029673;28;20080;-85
2022/10/10 14:47:01;;;;;;;6.72;2.80;;;;;;;;;;5025258;28;20049;-86
2022/10/10 14:49:27;;;;;;;6.85;2.92;;;;;;;;;;5029990;28;20077;-84